sensor_id;sensor_type;location;lat;lon;timestamp;P1;durP1;ratioP1;P2;durP2;ratioP2
7049;SDS011;22263;52.260;10.548;2022-12-29T00:00:12;4.45;;;3.10;;
7049;SDS011;22263;52.260;10.548;2022-12-29T00:02:42;5.38;;;3.13;;
7049;SDS011;22263;52.260;10.548;2022-12-29T00:05:11;6.47;;;3.70;;
7049;SDS011;22263;52.260;10.548;2022-12-29T00:07:43;5.78;;;3.95;;
7049;SDS011;22263;52.260;10.548;2022-12-29T00:10:13;6.93;;;4.00;;
7049;SDS011;22263;52.260;10.548;2022-12-29T00:12:42;6.75;;;3.92;;
7049;SDS011;22263;52.260;10.548;2022-12-29T00:15:24;7.43;;;3.22;;
7049;SDS011;22263;52.260;10.548;2022-12-29T00:18:08;6.85;;;3.65;;
7049;SDS011;22263;52.260;10.548;2022-12-29T00:20:37;5.80;;;3.45;;
7049;SDS011;22263;52.260;10.548;2022-12-29T00:23:22;8.80;;;3.63;;
7049;SDS011;22263;52.260;10.548;2022-12-29T00:26:05;8.15;;;4.90;;
7049;SDS011;22263;52.260;10.548;2022-12-29T00:28:50;5.82;;;3.75;;
7049;SDS011;22263;52.260;10.548;2022-12-29T00:31:32;6.15;;;3.10;;
7049;SDS011;22263;52.260;10.548;2022-12-29T00:34:14;4.57;;;3.00;;
7049;SDS011;22263;52.260;10.548;2022-12-29T00:36:59;5.65;;;2.83;;
7049;SDS011;22263;52.260;10.548;2022-12-29T00:39:32;3.67;;;2.60;;
7049;SDS011;22263;52.260;10.548;2022-12-29T00:42:14;2.70;;;2.40;;
7049;SDS011;22263;52.260;10.548;2022-12-29T00:44:56;4.20;;;2.30;;
7049;SDS011;22263;52.260;10.548;2022-12-29T00:47:25;5.97;;;2.88;;
7049;SDS011;22263;52.260;10.548;2022-12-29T00:49:54;3.15;;;2.42;;
7049;SDS011;22263;52.260;10.548;2022-12-29T00:52:21;5.90;;;3.15;;
7049;SDS011;22263;52.260;10.548;2022-12-29T00:54:53;5.35;;;3.10;;
7049;SDS011;22263;52.260;10.548;2022-12-29T00:57:23;4.88;;;3.20;;
7049;SDS011;22263;52.260;10.548;2022-12-29T00:59:52;6.32;;;3.60;;
7049;SDS011;22263;52.260;10.548;2022-12-29T01:02:21;4.78;;;3.20;;
7049;SDS011;22263;52.260;10.548;2022-12-29T01:04:51;6.07;;;3.45;;
7049;SDS011;22263;52.260;10.548;2022-12-29T01:07:20;4.70;;;3.30;;
7049;SDS011;22263;52.260;10.548;2022-12-29T01:09:50;3.40;;;2.53;;
7049;SDS011;22263;52.260;10.548;2022-12-29T01:12:35;5.32;;;2.90;;
7049;SDS011;22263;52.260;10.548;2022-12-29T01:15:12;4.15;;;2.95;;
7049;SDS011;22263;52.260;10.548;2022-12-29T01:17:42;6.38;;;2.92;;
7049;SDS011;22263;52.260;10.548;2022-12-29T01:20:11;4.75;;;3.10;;
7049;SDS011;22263;52.260;10.548;2022-12-29T01:22:41;5.43;;;2.88;;
7049;SDS011;22263;52.260;10.548;2022-12-29T01:25:11;6.63;;;2.80;;
7049;SDS011;22263;52.260;10.548;2022-12-29T01:27:42;3.42;;;2.42;;
7049;SDS011;22263;52.260;10.548;2022-12-29T01:30:12;2.97;;;2.47;;
7049;SDS011;22263;52.260;10.548;2022-12-29T01:32:43;3.90;;;2.60;;
7049;SDS011;22263;52.260;10.548;2022-12-29T01:35:13;3.83;;;2.33;;
7049;SDS011;22263;52.260;10.548;2022-12-29T01:37:43;4.00;;;2.42;;
7049;SDS011;22263;52.260;10.548;2022-12-29T01:40:13;3.47;;;2.00;;
7049;SDS011;22263;52.260;10.548;2022-12-29T01:42:46;2.88;;;2.05;;
7049;SDS011;22263;52.260;10.548;2022-12-29T01:45:16;2.25;;;2.00;;
7049;SDS011;22263;52.260;10.548;2022-12-29T01:47:47;3.08;;;1.73;;
7049;SDS011;22263;52.260;10.548;2022-12-29T01:50:18;3.40;;;2.25;;
7049;SDS011;22263;52.260;10.548;2022-12-29T01:52:50;2.10;;;1.75;;
7049;SDS011;22263;52.260;10.548;2022-12-29T01:55:21;4.03;;;1.90;;
7049;SDS011;22263;52.260;10.548;2022-12-29T01:57:53;3.45;;;1.95;;
7049;SDS011;22263;52.260;10.548;2022-12-29T02:00:25;2.60;;;2.05;;
7049;SDS011;22263;52.260;10.548;2022-12-29T02:02:54;3.67;;;1.85;;
7049;SDS011;22263;52.260;10.548;2022-12-29T02:05:25;3.30;;;1.98;;
7049;SDS011;22263;52.260;10.548;2022-12-29T02:07:56;1.95;;;1.77;;
7049;SDS011;22263;52.260;10.548;2022-12-29T02:10:30;2.45;;;2.10;;
7049;SDS011;22263;52.260;10.548;2022-12-29T02:13:03;3.65;;;2.20;;
7049;SDS011;22263;52.260;10.548;2022-12-29T02:15:34;2.53;;;2.03;;
7049;SDS011;22263;52.260;10.548;2022-12-29T02:18:09;2.10;;;1.90;;
7049;SDS011;22263;52.260;10.548;2022-12-29T02:23:49;2.45;;;1.95;;
7049;SDS011;22263;52.260;10.548;2022-12-29T02:26:27;2.60;;;2.10;;
7049;SDS011;22263;52.260;10.548;2022-12-29T02:29:11;2.85;;;2.13;;
7049;SDS011;22263;52.260;10.548;2022-12-29T02:31:51;3.55;;;2.20;;
7049;SDS011;22263;52.260;10.548;2022-12-29T02:34:24;2.25;;;1.92;;
7049;SDS011;22263;52.260;10.548;2022-12-29T02:36:59;2.33;;;1.88;;
7049;SDS011;22263;52.260;10.548;2022-12-29T02:39:32;5.38;;;2.15;;
7049;SDS011;22263;52.260;10.548;2022-12-29T02:42:07;3.03;;;2.00;;
7049;SDS011;22263;52.260;10.548;2022-12-29T02:44:42;2.80;;;2.10;;
7049;SDS011;22263;52.260;10.548;2022-12-29T02:47:15;2.63;;;2.35;;
7049;SDS011;22263;52.260;10.548;2022-12-29T02:49:50;2.83;;;2.25;;
7049;SDS011;22263;52.260;10.548;2022-12-29T02:52:22;2.47;;;2.00;;
7049;SDS011;22263;52.260;10.548;2022-12-29T02:54:55;3.30;;;2.20;;
7049;SDS011;22263;52.260;10.548;2022-12-29T02:57:28;3.38;;;2.03;;
7049;SDS011;22263;52.260;10.548;2022-12-29T03:00:01;3.28;;;2.05;;
7049;SDS011;22263;52.260;10.548;2022-12-29T03:05:21;2.03;;;1.83;;
7049;SDS011;22263;52.260;10.548;2022-12-29T03:07:52;2.72;;;2.17;;
7049;SDS011;22263;52.260;10.548;2022-12-29T03:10:31;3.78;;;2.10;;
7049;SDS011;22263;52.260;10.548;2022-12-29T03:13:04;2.20;;;2.00;;
7049;SDS011;22263;52.260;10.548;2022-12-29T03:15:50;2.78;;;1.80;;
7049;SDS011;22263;52.260;10.548;2022-12-29T03:18:41;2.25;;;2.05;;
7049;SDS011;22263;52.260;10.548;2022-12-29T03:21:17;2.22;;;2.00;;
7049;SDS011;22263;52.260;10.548;2022-12-29T03:23:48;2.25;;;1.88;;
7049;SDS011;22263;52.260;10.548;2022-12-29T03:26:18;2.40;;;2.03;;
7049;SDS011;22263;52.260;10.548;2022-12-29T03:28:50;3.35;;;1.80;;
7049;SDS011;22263;52.260;10.548;2022-12-29T03:31:27;3.42;;;1.80;;
7049;SDS011;22263;52.260;10.548;2022-12-29T03:33:59;2.20;;;1.70;;
7049;SDS011;22263;52.260;10.548;2022-12-29T03:36:36;3.55;;;2.13;;
7049;SDS011;22263;52.260;10.548;2022-12-29T03:39:10;5.03;;;2.03;;
7049;SDS011;22263;52.260;10.548;2022-12-29T03:41:41;2.78;;;2.00;;
7049;SDS011;22263;52.260;10.548;2022-12-29T03:44:13;3.70;;;2.20;;
7049;SDS011;22263;52.260;10.548;2022-12-29T03:46:45;2.13;;;1.77;;
7049;SDS011;22263;52.260;10.548;2022-12-29T03:49:15;2.85;;;1.98;;
7049;SDS011;22263;52.260;10.548;2022-12-29T03:51:48;1.75;;;1.63;;
7049;SDS011;22263;52.260;10.548;2022-12-29T03:54:18;1.98;;;1.77;;
7049;SDS011;22263;52.260;10.548;2022-12-29T03:56:48;2.83;;;1.90;;
7049;SDS011;22263;52.260;10.548;2022-12-29T03:59:30;3.03;;;1.60;;
7049;SDS011;22263;52.260;10.548;2022-12-29T04:02:00;2.58;;;1.95;;
7049;SDS011;22263;52.260;10.548;2022-12-29T04:04:32;3.30;;;1.80;;
7049;SDS011;22263;52.260;10.548;2022-12-29T04:07:04;2.17;;;1.98;;
7049;SDS011;22263;52.260;10.548;2022-12-29T04:09:34;2.92;;;1.92;;
7049;SDS011;22263;52.260;10.548;2022-12-29T04:12:07;3.55;;;1.77;;
7049;SDS011;22263;52.260;10.548;2022-12-29T04:14:37;2.38;;;1.98;;
7049;SDS011;22263;52.260;10.548;2022-12-29T04:17:06;2.50;;;1.80;;
7049;SDS011;22263;52.260;10.548;2022-12-29T04:19:36;1.98;;;1.80;;
7049;SDS011;22263;52.260;10.548;2022-12-29T04:22:09;4.35;;;2.03;;
7049;SDS011;22263;52.260;10.548;2022-12-29T04:24:39;2.08;;;1.88;;
7049;SDS011;22263;52.260;10.548;2022-12-29T04:27:10;3.40;;;1.98;;
7049;SDS011;22263;52.260;10.548;2022-12-29T04:29:59;2.88;;;2.03;;
7049;SDS011;22263;52.260;10.548;2022-12-29T04:32:44;1.92;;;1.70;;
7049;SDS011;22263;52.260;10.548;2022-12-29T04:35:13;4.45;;;1.80;;
7049;SDS011;22263;52.260;10.548;2022-12-29T04:37:49;2.10;;;1.75;;
7049;SDS011;22263;52.260;10.548;2022-12-29T04:40:19;1.75;;;1.65;;
7049;SDS011;22263;52.260;10.548;2022-12-29T04:42:51;3.22;;;1.73;;
7049;SDS011;22263;52.260;10.548;2022-12-29T04:45:22;3.55;;;1.65;;
7049;SDS011;22263;52.260;10.548;2022-12-29T04:48:05;1.95;;;1.70;;
7049;SDS011;22263;52.260;10.548;2022-12-29T04:50:53;1.80;;;1.70;;
7049;SDS011;22263;52.260;10.548;2022-12-29T04:53:27;3.45;;;1.58;;
7049;SDS011;22263;52.260;10.548;2022-12-29T04:55:58;1.90;;;1.50;;
7049;SDS011;22263;52.260;10.548;2022-12-29T04:58:27;1.85;;;1.60;;
7049;SDS011;22263;52.260;10.548;2022-12-29T05:00:58;2.72;;;1.60;;
7049;SDS011;22263;52.260;10.548;2022-12-29T05:03:29;1.65;;;1.55;;
7049;SDS011;22263;52.260;10.548;2022-12-29T05:05:59;2.72;;;1.60;;
7049;SDS011;22263;52.260;10.548;2022-12-29T05:08:30;1.70;;;1.60;;
7049;SDS011;22263;52.260;10.548;2022-12-29T05:11:01;3.72;;;1.67;;
7049;SDS011;22263;52.260;10.548;2022-12-29T05:13:31;3.03;;;1.67;;
7049;SDS011;22263;52.260;10.548;2022-12-29T05:16:01;4.57;;;1.98;;
7049;SDS011;22263;52.260;10.548;2022-12-29T05:18:31;4.20;;;2.40;;
7049;SDS011;22263;52.260;10.548;2022-12-29T05:21:02;3.35;;;2.53;;
7049;SDS011;22263;52.260;10.548;2022-12-29T05:23:34;4.18;;;3.03;;
7049;SDS011;22263;52.260;10.548;2022-12-29T05:26:05;7.93;;;3.10;;
7049;SDS011;22263;52.260;10.548;2022-12-29T05:28:49;5.85;;;3.13;;
7049;SDS011;22263;52.260;10.548;2022-12-29T05:31:18;4.75;;;3.15;;
7049;SDS011;22263;52.260;10.548;2022-12-29T05:33:48;7.30;;;3.10;;
7049;SDS011;22263;52.260;10.548;2022-12-29T05:36:18;4.25;;;2.95;;
7049;SDS011;22263;52.260;10.548;2022-12-29T05:38:54;5.22;;;2.47;;
7049;SDS011;22263;52.260;10.548;2022-12-29T05:41:23;2.30;;;2.05;;
7049;SDS011;22263;52.260;10.548;2022-12-29T05:44:14;3.63;;;1.80;;
7049;SDS011;22263;52.260;10.548;2022-12-29T05:46:49;3.17;;;1.60;;
7049;SDS011;22263;52.260;10.548;2022-12-29T05:49:31;2.67;;;1.75;;
7049;SDS011;22263;52.260;10.548;2022-12-29T05:52:20;1.40;;;1.10;;
7049;SDS011;22263;52.260;10.548;2022-12-29T05:54:52;1.80;;;1.27;;
7049;SDS011;22263;52.260;10.548;2022-12-29T05:57:24;3.17;;;1.40;;
7049;SDS011;22263;52.260;10.548;2022-12-29T06:00:03;1.48;;;1.23;;
7049;SDS011;22263;52.260;10.548;2022-12-29T06:02:39;1.85;;;1.20;;
7049;SDS011;22263;52.260;10.548;2022-12-29T06:05:09;2.22;;;1.30;;
7049;SDS011;22263;52.260;10.548;2022-12-29T06:07:39;1.30;;;1.20;;
7049;SDS011;22263;52.260;10.548;2022-12-29T06:10:11;1.92;;;1.30;;
7049;SDS011;22263;52.260;10.548;2022-12-29T06:12:48;1.75;;;1.30;;
7049;SDS011;22263;52.260;10.548;2022-12-29T06:15:18;1.20;;;1.10;;
7049;SDS011;22263;52.260;10.548;2022-12-29T06:17:49;1.38;;;1.17;;
7049;SDS011;22263;52.260;10.548;2022-12-29T06:20:18;1.10;;;1.00;;
7049;SDS011;22263;52.260;10.548;2022-12-29T06:22:48;1.38;;;1.20;;
7049;SDS011;22263;52.260;10.548;2022-12-29T06:25:20;1.50;;;1.30;;
7049;SDS011;22263;52.260;10.548;2022-12-29T06:27:49;1.65;;;1.20;;
7049;SDS011;22263;52.260;10.548;2022-12-29T06:30:19;3.10;;;1.30;;
7049;SDS011;22263;52.260;10.548;2022-12-29T06:32:48;1.40;;;1.30;;
7049;SDS011;22263;52.260;10.548;2022-12-29T06:35:18;2.30;;;1.13;;
7049;SDS011;22263;52.260;10.548;2022-12-29T06:37:50;1.25;;;1.15;;
7049;SDS011;22263;52.260;10.548;2022-12-29T06:40:22;2.08;;;1.00;;
7049;SDS011;22263;52.260;10.548;2022-12-29T06:43:06;1.40;;;1.20;;
7049;SDS011;22263;52.260;10.548;2022-12-29T06:45:55;1.20;;;1.10;;
7049;SDS011;22263;52.260;10.548;2022-12-29T06:48:24;1.02;;;0.95;;
7049;SDS011;22263;52.260;10.548;2022-12-29T06:50:53;1.00;;;1.00;;
7049;SDS011;22263;52.260;10.548;2022-12-29T06:53:23;1.20;;;1.10;;
7049;SDS011;22263;52.260;10.548;2022-12-29T06:55:55;1.00;;;0.95;;
7049;SDS011;22263;52.260;10.548;2022-12-29T06:58:25;1.58;;;1.13;;
7049;SDS011;22263;52.260;10.548;2022-12-29T07:00:54;1.92;;;1.75;;
7049;SDS011;22263;52.260;10.548;2022-12-29T07:03:24;0.95;;;0.95;;
7049;SDS011;22263;52.260;10.548;2022-12-29T07:05:53;2.42;;;2.05;;
7049;SDS011;22263;52.260;10.548;2022-12-29T07:08:24;0.85;;;0.85;;
7049;SDS011;22263;52.260;10.548;2022-12-29T07:10:56;0.90;;;0.90;;
7049;SDS011;22263;52.260;10.548;2022-12-29T07:13:25;1.40;;;1.10;;
7049;SDS011;22263;52.260;10.548;2022-12-29T07:15:55;0.80;;;0.80;;
7049;SDS011;22263;52.260;10.548;2022-12-29T07:18:24;1.77;;;1.58;;
7049;SDS011;22263;52.260;10.548;2022-12-29T07:20:53;2.35;;;1.85;;
7049;SDS011;22263;52.260;10.548;2022-12-29T07:23:22;2.78;;;0.90;;
7049;SDS011;22263;52.260;10.548;2022-12-29T07:26:00;0.98;;;0.98;;
7049;SDS011;22263;52.260;10.548;2022-12-29T07:28:30;1.10;;;1.00;;
7049;SDS011;22263;52.260;10.548;2022-12-29T07:31:00;1.15;;;0.90;;
7049;SDS011;22263;52.260;10.548;2022-12-29T07:33:29;2.38;;;0.82;;
7049;SDS011;22263;52.260;10.548;2022-12-29T07:35:59;1.08;;;0.95;;
7049;SDS011;22263;52.260;10.548;2022-12-29T07:38:28;1.55;;;1.13;;
7049;SDS011;22263;52.260;10.548;2022-12-29T07:40:58;1.52;;;0.90;;
7049;SDS011;22263;52.260;10.548;2022-12-29T07:43:30;1.10;;;1.00;;
7049;SDS011;22263;52.260;10.548;2022-12-29T07:46:18;0.90;;;0.90;;
7049;SDS011;22263;52.260;10.548;2022-12-29T07:49:07;2.10;;;1.20;;
7049;SDS011;22263;52.260;10.548;2022-12-29T07:51:36;2.22;;;1.10;;
7049;SDS011;22263;52.260;10.548;2022-12-29T07:54:06;1.30;;;1.10;;
7049;SDS011;22263;52.260;10.548;2022-12-29T07:56:35;1.20;;;1.10;;
7049;SDS011;22263;52.260;10.548;2022-12-29T07:59:07;1.40;;;1.20;;
7049;SDS011;22263;52.260;10.548;2022-12-29T08:01:38;0.98;;;0.90;;
7049;SDS011;22263;52.260;10.548;2022-12-29T08:04:08;0.90;;;0.90;;
7049;SDS011;22263;52.260;10.548;2022-12-29T08:06:37;1.00;;;1.00;;
7049;SDS011;22263;52.260;10.548;2022-12-29T08:09:07;1.13;;;1.02;;
7049;SDS011;22263;52.260;10.548;2022-12-29T08:11:47;1.92;;;1.40;;
7049;SDS011;22263;52.260;10.548;2022-12-29T08:14:19;1.27;;;1.02;;
7049;SDS011;22263;52.260;10.548;2022-12-29T08:16:48;5.43;;;1.60;;
7049;SDS011;22263;52.260;10.548;2022-12-29T08:19:17;2.83;;;2.15;;
7049;SDS011;22263;52.260;10.548;2022-12-29T08:21:47;3.95;;;1.80;;
7049;SDS011;22263;52.260;10.548;2022-12-29T08:24:16;1.92;;;1.60;;
7049;SDS011;22263;52.260;10.548;2022-12-29T08:26:45;2.35;;;1.52;;
7049;SDS011;22263;52.260;10.548;2022-12-29T08:29:15;3.70;;;1.30;;
7049;SDS011;22263;52.260;10.548;2022-12-29T08:31:47;1.35;;;1.10;;
7049;SDS011;22263;52.260;10.548;2022-12-29T08:34:16;1.45;;;1.35;;
7049;SDS011;22263;52.260;10.548;2022-12-29T08:36:45;3.45;;;1.73;;
7049;SDS011;22263;52.260;10.548;2022-12-29T08:39:15;2.08;;;1.60;;
7049;SDS011;22263;52.260;10.548;2022-12-29T08:41:44;5.10;;;1.80;;
7049;SDS011;22263;52.260;10.548;2022-12-29T08:44:13;2.53;;;2.13;;
7049;SDS011;22263;52.260;10.548;2022-12-29T08:46:43;3.97;;;2.20;;
7049;SDS011;22263;52.260;10.548;2022-12-29T08:49:15;4.18;;;2.28;;
7049;SDS011;22263;52.260;10.548;2022-12-29T08:51:44;4.05;;;2.40;;
7049;SDS011;22263;52.260;10.548;2022-12-29T08:54:14;5.45;;;2.30;;
7049;SDS011;22263;52.260;10.548;2022-12-29T08:56:43;2.40;;;2.00;;
7049;SDS011;22263;52.260;10.548;2022-12-29T08:59:14;4.32;;;2.00;;
7049;SDS011;22263;52.260;10.548;2022-12-29T09:01:46;3.58;;;2.20;;
7049;SDS011;22263;52.260;10.548;2022-12-29T09:04:18;2.72;;;1.73;;
7049;SDS011;22263;52.260;10.548;2022-12-29T09:06:50;1.50;;;1.40;;
7049;SDS011;22263;52.260;10.548;2022-12-29T09:09:19;1.50;;;1.40;;
7049;SDS011;22263;52.260;10.548;2022-12-29T09:11:49;2.85;;;1.70;;
7049;SDS011;22263;52.260;10.548;2022-12-29T09:14:18;2.67;;;1.65;;
7049;SDS011;22263;52.260;10.548;2022-12-29T09:16:47;2.92;;;1.80;;
7049;SDS011;22263;52.260;10.548;2022-12-29T09:19:34;2.55;;;2.05;;
7049;SDS011;22263;52.260;10.548;2022-12-29T09:22:04;2.00;;;1.80;;
7049;SDS011;22263;52.260;10.548;2022-12-29T09:24:33;4.15;;;2.10;;
7049;SDS011;22263;52.260;10.548;2022-12-29T09:27:02;3.55;;;2.40;;
7049;SDS011;22263;52.260;10.548;2022-12-29T09:29:32;3.50;;;2.10;;
7049;SDS011;22263;52.260;10.548;2022-12-29T09:32:01;3.38;;;2.40;;
7049;SDS011;22263;52.260;10.548;2022-12-29T09:34:36;5.72;;;2.92;;
7049;SDS011;22263;52.260;10.548;2022-12-29T09:37:05;6.47;;;3.47;;
7049;SDS011;22263;52.260;10.548;2022-12-29T09:39:34;3.10;;;2.10;;
7049;SDS011;22263;52.260;10.548;2022-12-29T09:42:05;3.83;;;2.13;;
7049;SDS011;22263;52.260;10.548;2022-12-29T09:44:42;2.70;;;1.65;;
7049;SDS011;22263;52.260;10.548;2022-12-29T09:47:14;1.50;;;1.40;;
7049;SDS011;22263;52.260;10.548;2022-12-29T09:49:47;3.53;;;1.50;;
7049;SDS011;22263;52.260;10.548;2022-12-29T09:52:19;1.50;;;1.40;;
7049;SDS011;22263;52.260;10.548;2022-12-29T09:54:52;1.40;;;1.20;;
7049;SDS011;22263;52.260;10.548;2022-12-29T09:57:32;1.50;;;1.38;;
7049;SDS011;22263;52.260;10.548;2022-12-29T10:00:04;1.58;;;1.30;;
7049;SDS011;22263;52.260;10.548;2022-12-29T10:02:39;1.63;;;1.40;;
7049;SDS011;22263;52.260;10.548;2022-12-29T10:05:16;1.30;;;1.20;;
7049;SDS011;22263;52.260;10.548;2022-12-29T10:07:49;3.60;;;1.63;;
7049;SDS011;22263;52.260;10.548;2022-12-29T10:10:27;2.47;;;1.60;;
7049;SDS011;22263;52.260;10.548;2022-12-29T10:13:01;1.70;;;1.42;;
7049;SDS011;22263;52.260;10.548;2022-12-29T10:15:38;1.90;;;1.38;;
7049;SDS011;22263;52.260;10.548;2022-12-29T10:18:13;1.63;;;1.42;;
7049;SDS011;22263;52.260;10.548;2022-12-29T10:20:49;3.78;;;1.70;;
7049;SDS011;22263;52.260;10.548;2022-12-29T10:23:24;2.90;;;1.90;;
7049;SDS011;22263;52.260;10.548;2022-12-29T10:25:56;2.72;;;1.52;;
7049;SDS011;22263;52.260;10.548;2022-12-29T10:28:30;1.45;;;1.35;;
7049;SDS011;22263;52.260;10.548;2022-12-29T10:31:01;2.50;;;1.27;;
7049;SDS011;22263;52.260;10.548;2022-12-29T10:33:35;2.85;;;1.85;;
7049;SDS011;22263;52.260;10.548;2022-12-29T10:36:13;2.72;;;1.60;;
7049;SDS011;22263;52.260;10.548;2022-12-29T10:38:45;1.63;;;1.23;;
7049;SDS011;22263;52.260;10.548;2022-12-29T10:41:18;3.55;;;1.55;;
7049;SDS011;22263;52.260;10.548;2022-12-29T10:43:49;3.05;;;1.73;;
7049;SDS011;22263;52.260;10.548;2022-12-29T10:46:21;4.43;;;2.20;;
7049;SDS011;22263;52.260;10.548;2022-12-29T10:48:52;4.50;;;2.42;;
7049;SDS011;22263;52.260;10.548;2022-12-29T10:51:25;4.45;;;2.42;;
7049;SDS011;22263;52.260;10.548;2022-12-29T10:53:55;3.28;;;2.40;;
7049;SDS011;22263;52.260;10.548;2022-12-29T10:56:29;3.30;;;2.25;;
7049;SDS011;22263;52.260;10.548;2022-12-29T10:59:03;4.70;;;2.63;;
7049;SDS011;22263;52.260;10.548;2022-12-29T11:01:35;3.45;;;1.92;;
7049;SDS011;22263;52.260;10.548;2022-12-29T11:04:22;1.98;;;1.60;;
7049;SDS011;22263;52.260;10.548;2022-12-29T11:06:57;3.05;;;1.30;;
7049;SDS011;22263;52.260;10.548;2022-12-29T11:09:28;2.72;;;1.50;;
7049;SDS011;22263;52.260;10.548;2022-12-29T11:12:20;2.20;;;1.40;;
7049;SDS011;22263;52.260;10.548;2022-12-29T11:15:11;2.92;;;1.83;;
7049;SDS011;22263;52.260;10.548;2022-12-29T11:17:45;2.47;;;1.15;;
7049;SDS011;22263;52.260;10.548;2022-12-29T11:23:21;3.40;;;2.30;;
7049;SDS011;22263;52.260;10.548;2022-12-29T11:26:05;4.05;;;2.35;;
7049;SDS011;22263;52.260;10.548;2022-12-29T11:28:35;2.78;;;1.80;;
7049;SDS011;22263;52.260;10.548;2022-12-29T11:31:05;2.90;;;1.73;;
7049;SDS011;22263;52.260;10.548;2022-12-29T11:33:35;4.47;;;1.30;;
7049;SDS011;22263;52.260;10.548;2022-12-29T11:36:06;5.55;;;2.00;;
7049;SDS011;22263;52.260;10.548;2022-12-29T11:38:39;5.45;;;2.90;;
7049;SDS011;22263;52.260;10.548;2022-12-29T11:41:10;3.47;;;2.25;;
7049;SDS011;22263;52.260;10.548;2022-12-29T11:43:41;7.05;;;2.70;;
7049;SDS011;22263;52.260;10.548;2022-12-29T11:46:13;4.53;;;2.33;;
7049;SDS011;22263;52.260;10.548;2022-12-29T11:48:43;4.78;;;1.52;;
7049;SDS011;22263;52.260;10.548;2022-12-29T11:51:21;5.60;;;1.80;;
7049;SDS011;22263;52.260;10.548;2022-12-29T11:53:55;3.67;;;2.05;;
7049;SDS011;22263;52.260;10.548;2022-12-29T11:56:32;1.80;;;1.42;;
7049;SDS011;22263;52.260;10.548;2022-12-29T12:01:51;2.35;;;1.63;;
7049;SDS011;22263;52.260;10.548;2022-12-29T12:04:21;2.15;;;1.30;;
7049;SDS011;22263;52.260;10.548;2022-12-29T12:06:55;2.65;;;1.48;;
7049;SDS011;22263;52.260;10.548;2022-12-29T12:09:29;3.50;;;1.50;;
7049;SDS011;22263;52.260;10.548;2022-12-29T12:12:00;1.35;;;1.25;;
7049;SDS011;22263;52.260;10.548;2022-12-29T12:14:31;1.67;;;1.25;;
7049;SDS011;22263;52.260;10.548;2022-12-29T12:17:29;1.50;;;1.30;;
7049;SDS011;22263;52.260;10.548;2022-12-29T12:20:06;3.25;;;1.48;;
7049;SDS011;22263;52.260;10.548;2022-12-29T12:22:40;2.35;;;1.42;;
7049;SDS011;22263;52.260;10.548;2022-12-29T12:25:17;2.45;;;1.60;;
7049;SDS011;22263;52.260;10.548;2022-12-29T12:27:48;3.60;;;1.70;;
7049;SDS011;22263;52.260;10.548;2022-12-29T12:30:21;2.88;;;1.60;;
7049;SDS011;22263;52.260;10.548;2022-12-29T12:32:52;7.68;;;1.77;;
7049;SDS011;22263;52.260;10.548;2022-12-29T12:35:24;4.18;;;1.20;;
7049;SDS011;22263;52.260;10.548;2022-12-29T12:37:59;3.30;;;1.50;;
7049;SDS011;22263;52.260;10.548;2022-12-29T12:40:48;2.70;;;1.10;;
7049;SDS011;22263;52.260;10.548;2022-12-29T12:43:27;2.95;;;1.38;;
7049;SDS011;22263;52.260;10.548;2022-12-29T12:46:01;6.38;;;3.47;;
7049;SDS011;22263;52.260;10.548;2022-12-29T12:48:38;7.63;;;3.47;;
7049;SDS011;22263;52.260;10.548;2022-12-29T12:51:14;3.08;;;1.20;;
7049;SDS011;22263;52.260;10.548;2022-12-29T12:53:51;2.55;;;1.50;;
7049;SDS011;22263;52.260;10.548;2022-12-29T12:56:37;3.10;;;1.30;;
7049;SDS011;22263;52.260;10.548;2022-12-29T12:59:15;2.35;;;1.30;;
7049;SDS011;22263;52.260;10.548;2022-12-29T13:01:48;3.17;;;1.65;;
7049;SDS011;22263;52.260;10.548;2022-12-29T13:07:09;3.25;;;1.50;;
7049;SDS011;22263;52.260;10.548;2022-12-29T13:09:45;3.92;;;1.50;;
7049;SDS011;22263;52.260;10.548;2022-12-29T13:12:22;2.05;;;1.50;;
7049;SDS011;22263;52.260;10.548;2022-12-29T13:14:56;1.52;;;1.42;;
7049;SDS011;22263;52.260;10.548;2022-12-29T13:17:30;3.10;;;1.40;;
7049;SDS011;22263;52.260;10.548;2022-12-29T13:20:03;5.38;;;1.40;;
7049;SDS011;22263;52.260;10.548;2022-12-29T13:22:38;2.85;;;1.20;;
7049;SDS011;22263;52.260;10.548;2022-12-29T13:25:18;4.30;;;1.35;;
7049;SDS011;22263;52.260;10.548;2022-12-29T13:27:53;2.88;;;1.30;;
7049;SDS011;22263;52.260;10.548;2022-12-29T13:30:26;2.05;;;1.30;;
7049;SDS011;22263;52.260;10.548;2022-12-29T13:32:59;3.10;;;1.65;;
7049;SDS011;22263;52.260;10.548;2022-12-29T13:35:43;4.05;;;1.60;;
7049;SDS011;22263;52.260;10.548;2022-12-29T13:38:15;3.00;;;1.30;;
7049;SDS011;22263;52.260;10.548;2022-12-29T13:40:47;2.05;;;1.48;;
7049;SDS011;22263;52.260;10.548;2022-12-29T13:43:21;2.90;;;1.77;;
7049;SDS011;22263;52.260;10.548;2022-12-29T13:45:55;3.53;;;1.60;;
7049;SDS011;22263;52.260;10.548;2022-12-29T13:48:28;2.28;;;1.48;;
7049;SDS011;22263;52.260;10.548;2022-12-29T13:51:00;3.95;;;1.30;;
7049;SDS011;22263;52.260;10.548;2022-12-29T13:53:33;4.53;;;1.70;;
7049;SDS011;22263;52.260;10.548;2022-12-29T13:56:04;3.08;;;1.42;;
7049;SDS011;22263;52.260;10.548;2022-12-29T13:58:41;2.13;;;1.35;;
7049;SDS011;22263;52.260;10.548;2022-12-29T14:01:12;4.53;;;1.55;;
7049;SDS011;22263;52.260;10.548;2022-12-29T14:03:47;3.42;;;1.45;;
7049;SDS011;22263;52.260;10.548;2022-12-29T14:06:22;2.47;;;1.42;;
7049;SDS011;22263;52.260;10.548;2022-12-29T14:08:53;2.95;;;1.30;;
7049;SDS011;22263;52.260;10.548;2022-12-29T14:11:25;2.65;;;1.58;;
7049;SDS011;22263;52.260;10.548;2022-12-29T14:14:09;3.05;;;1.70;;
7049;SDS011;22263;52.260;10.548;2022-12-29T14:16:40;2.50;;;1.38;;
7049;SDS011;22263;52.260;10.548;2022-12-29T14:19:12;2.38;;;1.52;;
7049;SDS011;22263;52.260;10.548;2022-12-29T14:21:49;3.88;;;1.58;;
7049;SDS011;22263;52.260;10.548;2022-12-29T14:30:00;2.83;;;1.60;;
7049;SDS011;22263;52.260;10.548;2022-12-29T14:32:36;4.00;;;1.80;;
7049;SDS011;22263;52.260;10.548;2022-12-29T14:37:51;3.70;;;1.58;;
7049;SDS011;22263;52.260;10.548;2022-12-29T14:40:34;5.07;;;1.67;;
7049;SDS011;22263;52.260;10.548;2022-12-29T14:43:05;5.15;;;2.03;;
7049;SDS011;22263;52.260;10.548;2022-12-29T14:45:48;4.30;;;1.77;;
7049;SDS011;22263;52.260;10.548;2022-12-29T14:48:21;4.25;;;1.83;;
7049;SDS011;22263;52.260;10.548;2022-12-29T14:50:57;3.55;;;1.77;;
7049;SDS011;22263;52.260;10.548;2022-12-29T14:56:11;4.85;;;1.80;;
7049;SDS011;22263;52.260;10.548;2022-12-29T14:58:43;6.60;;;1.88;;
7049;SDS011;22263;52.260;10.548;2022-12-29T15:01:20;3.03;;;1.83;;
7049;SDS011;22263;52.260;10.548;2022-12-29T15:03:50;5.07;;;1.63;;
7049;SDS011;22263;52.260;10.548;2022-12-29T15:06:20;3.50;;;1.70;;
7049;SDS011;22263;52.260;10.548;2022-12-29T15:08:53;2.50;;;1.90;;
7049;SDS011;22263;52.260;10.548;2022-12-29T15:11:30;3.00;;;1.50;;
7049;SDS011;22263;52.260;10.548;2022-12-29T15:14:00;3.72;;;1.90;;
7049;SDS011;22263;52.260;10.548;2022-12-29T15:16:33;4.70;;;1.92;;
7049;SDS011;22263;52.260;10.548;2022-12-29T15:19:03;4.03;;;1.73;;
7049;SDS011;22263;52.260;10.548;2022-12-29T15:21:35;5.10;;;1.98;;
7049;SDS011;22263;52.260;10.548;2022-12-29T15:24:05;5.50;;;2.03;;
7049;SDS011;22263;52.260;10.548;2022-12-29T15:26:38;4.25;;;1.80;;
7049;SDS011;22263;52.260;10.548;2022-12-29T15:29:26;3.70;;;1.65;;
7049;SDS011;22263;52.260;10.548;2022-12-29T15:32:00;3.28;;;1.73;;
7049;SDS011;22263;52.260;10.548;2022-12-29T15:34:30;4.95;;;1.92;;
7049;SDS011;22263;52.260;10.548;2022-12-29T15:37:05;7.15;;;2.00;;
7049;SDS011;22263;52.260;10.548;2022-12-29T15:39:35;5.05;;;1.88;;
7049;SDS011;22263;52.260;10.548;2022-12-29T15:42:05;5.78;;;1.60;;
7049;SDS011;22263;52.260;10.548;2022-12-29T15:44:39;3.25;;;1.67;;
7049;SDS011;22263;52.260;10.548;2022-12-29T15:47:13;3.83;;;1.95;;
7049;SDS011;22263;52.260;10.548;2022-12-29T15:49:44;6.13;;;1.88;;